sensor_id;sensor_type;location;lat;lon;timestamp;temperature;humidity
27633;DHT22;15046;50.930;13.334;2023-01-31T00:02:00;2.10;99.90
27633;DHT22;15046;50.930;13.334;2023-01-31T00:04:26;2.10;99.90
27633;DHT22;15046;50.930;13.334;2023-01-31T00:06:51;2.10;99.90
27633;DHT22;15046;50.930;13.334;2023-01-31T00:09:18;2.10;99.90
27633;DHT22;15046;50.930;13.334;2023-01-31T00:11:45;2.00;99.90
27633;DHT22;15046;50.930;13.334;2023-01-31T00:14:16;2.10;99.90
27633;DHT22;15046;50.930;13.334;2023-01-31T00:16:43;2.10;99.90
27633;DHT22;15046;50.930;13.334;2023-01-31T00:19:08;2.00;99.90
27633;DHT22;15046;50.930;13.334;2023-01-31T00:21:34;2.00;99.90
27633;DHT22;15046;50.930;13.334;2023-01-31T00:24:00;1.90;99.90
27633;DHT22;15046;50.930;13.334;2023-01-31T00:26:27;1.90;99.90
27633;DHT22;15046;50.930;13.334;2023-01-31T00:28:55;1.80;99.90
27633;DHT22;15046;50.930;13.334;2023-01-31T00:31:22;1.80;99.90
27633;DHT22;15046;50.930;13.334;2023-01-31T00:33:50;1.70;99.90
27633;DHT22;15046;50.930;13.334;2023-01-31T00:36:19;1.70;99.90
27633;DHT22;15046;50.930;13.334;2023-01-31T00:38:48;1.70;99.90
27633;DHT22;15046;50.930;13.334;2023-01-31T00:41:14;1.60;99.90
27633;DHT22;15046;50.930;13.334;2023-01-31T00:43:40;1.60;99.90
27633;DHT22;15046;50.930;13.334;2023-01-31T00:46:05;1.60;99.90
27633;DHT22;15046;50.930;13.334;2023-01-31T00:48:32;1.60;99.90
27633;DHT22;15046;50.930;13.334;2023-01-31T00:50:58;1.60;99.90
27633;DHT22;15046;50.930;13.334;2023-01-31T00:53:24;1.60;99.90
27633;DHT22;15046;50.930;13.334;2023-01-31T00:55:59;1.60;99.90
27633;DHT22;15046;50.930;13.334;2023-01-31T00:58:25;1.60;99.90
27633;DHT22;15046;50.930;13.334;2023-01-31T01:00:51;1.60;99.90
27633;DHT22;15046;50.930;13.334;2023-01-31T01:03:17;1.60;99.90
27633;DHT22;15046;50.930;13.334;2023-01-31T01:05:43;1.60;99.90
27633;DHT22;15046;50.930;13.334;2023-01-31T01:08:09;1.60;99.90
27633;DHT22;15046;50.930;13.334;2023-01-31T01:10:34;1.60;99.90
27633;DHT22;15046;50.930;13.334;2023-01-31T01:13:01;1.60;99.90
27633;DHT22;15046;50.930;13.334;2023-01-31T01:15:27;1.60;99.90
27633;DHT22;15046;50.930;13.334;2023-01-31T01:17:54;1.60;99.90
27633;DHT22;15046;50.930;13.334;2023-01-31T01:20:20;1.60;99.90
27633;DHT22;15046;50.930;13.334;2023-01-31T01:22:46;1.60;99.90
27633;DHT22;15046;50.930;13.334;2023-01-31T01:25:12;1.60;99.90
27633;DHT22;15046;50.930;13.334;2023-01-31T01:27:37;1.60;99.90
27633;DHT22;15046;50.930;13.334;2023-01-31T01:30:04;1.60;99.90
27633;DHT22;15046;50.930;13.334;2023-01-31T01:32:30;1.50;99.90
27633;DHT22;15046;50.930;13.334;2023-01-31T01:34:56;1.50;99.90
27633;DHT22;15046;50.930;13.334;2023-01-31T01:37:22;1.50;99.90
27633;DHT22;15046;50.930;13.334;2023-01-31T01:39:49;1.50;99.90
27633;DHT22;15046;50.930;13.334;2023-01-31T01:42:17;1.50;99.90
27633;DHT22;15046;50.930;13.334;2023-01-31T01:44:53;1.50;99.90
27633;DHT22;15046;50.930;13.334;2023-01-31T01:47:34;1.50;99.90
27633;DHT22;15046;50.930;13.334;2023-01-31T01:50:19;1.60;99.90
27633;DHT22;15046;50.930;13.334;2023-01-31T01:56:19;1.60;99.90
27633;DHT22;15046;50.930;13.334;2023-01-31T01:58:41;1.60;99.90
27633;DHT22;15046;50.930;13.334;2023-01-31T02:01:09;1.60;99.90
27633;DHT22;15046;50.930;13.334;2023-01-31T02:03:39;1.60;99.90
27633;DHT22;15046;50.930;13.334;2023-01-31T02:06:06;1.60;99.90
27633;DHT22;15046;50.930;13.334;2023-01-31T02:08:33;1.60;99.90
27633;DHT22;15046;50.930;13.334;2023-01-31T02:11:04;1.70;99.90
27633;DHT22;15046;50.930;13.334;2023-01-31T02:13:31;1.70;99.90
27633;DHT22;15046;50.930;13.334;2023-01-31T02:15:57;1.70;99.90
27633;DHT22;15046;50.930;13.334;2023-01-31T02:18:24;1.70;99.90
27633;DHT22;15046;50.930;13.334;2023-01-31T02:30:19;1.70;99.90
27633;DHT22;15046;50.930;13.334;2023-01-31T02:38:40;1.70;99.90
27633;DHT22;15046;50.930;13.334;2023-01-31T02:44:04;1.70;99.90
27633;DHT22;15046;50.930;13.334;2023-01-31T02:49:37;1.70;99.90
27633;DHT22;15046;50.930;13.334;2023-01-31T02:54:53;1.70;99.90
27633;DHT22;15046;50.930;13.334;2023-01-31T02:57:40;1.70;99.90
27633;DHT22;15046;50.930;13.334;2023-01-31T03:00:07;1.70;99.90
27633;DHT22;15046;50.930;13.334;2023-01-31T03:02:34;1.70;99.90
27633;DHT22;15046;50.930;13.334;2023-01-31T03:05:00;1.70;99.90
27633;DHT22;15046;50.930;13.334;2023-01-31T03:07:28;1.70;99.90
27633;DHT22;15046;50.930;13.334;2023-01-31T03:10:15;1.70;99.90
27633;DHT22;15046;50.930;13.334;2023-01-31T03:21:15;1.70;99.90
27633;DHT22;15046;50.930;13.334;2023-01-31T03:23:45;1.80;99.90
27633;DHT22;15046;50.930;13.334;2023-01-31T03:26:13;1.70;99.90
27633;DHT22;15046;50.930;13.334;2023-01-31T03:28:41;1.80;99.90
27633;DHT22;15046;50.930;13.334;2023-01-31T03:31:18;1.80;99.90
27633;DHT22;15046;50.930;13.334;2023-01-31T03:33:54;1.80;99.90
27633;DHT22;15046;50.930;13.334;2023-01-31T03:39:41;1.70;99.90
27633;DHT22;15046;50.930;13.334;2023-01-31T03:42:16;1.70;99.90
27633;DHT22;15046;50.930;13.334;2023-01-31T03:45:12;1.70;99.90
27633;DHT22;15046;50.930;13.334;2023-01-31T03:47:42;1.70;99.90
27633;DHT22;15046;50.930;13.334;2023-01-31T03:50:15;1.70;99.90
27633;DHT22;15046;50.930;13.334;2023-01-31T03:52:49;1.70;99.90
27633;DHT22;15046;50.930;13.334;2023-01-31T03:55:20;1.70;99.90
27633;DHT22;15046;50.930;13.334;2023-01-31T03:57:51;1.70;99.90
27633;DHT22;15046;50.930;13.334;2023-01-31T04:00:20;1.70;99.90
27633;DHT22;15046;50.930;13.334;2023-01-31T04:02:50;1.70;99.90
27633;DHT22;15046;50.930;13.334;2023-01-31T04:05:20;1.70;99.90
27633;DHT22;15046;50.930;13.334;2023-01-31T04:07:47;1.70;99.90
27633;DHT22;15046;50.930;13.334;2023-01-31T04:10:17;1.80;99.90
27633;DHT22;15046;50.930;13.334;2023-01-31T04:12:45;1.80;99.90
27633;DHT22;15046;50.930;13.334;2023-01-31T04:15:11;1.70;99.90
27633;DHT22;15046;50.930;13.334;2023-01-31T04:17:37;1.80;99.90
27633;DHT22;15046;50.930;13.334;2023-01-31T04:20:04;1.70;99.90
27633;DHT22;15046;50.930;13.334;2023-01-31T04:22:30;1.80;99.90
27633;DHT22;15046;50.930;13.334;2023-01-31T04:24:57;1.70;99.90
27633;DHT22;15046;50.930;13.334;2023-01-31T04:27:22;1.70;99.90
27633;DHT22;15046;50.930;13.334;2023-01-31T04:29:48;1.70;99.90
27633;DHT22;15046;50.930;13.334;2023-01-31T04:32:14;1.70;99.90
27633;DHT22;15046;50.930;13.334;2023-01-31T04:34:40;1.70;99.90
27633;DHT22;15046;50.930;13.334;2023-01-31T04:37:05;1.70;99.90
27633;DHT22;15046;50.930;13.334;2023-01-31T04:39:31;1.70;99.90
27633;DHT22;15046;50.930;13.334;2023-01-31T04:41:57;1.70;99.90
27633;DHT22;15046;50.930;13.334;2023-01-31T04:44:23;1.70;99.90
27633;DHT22;15046;50.930;13.334;2023-01-31T04:46:48;1.70;99.90
27633;DHT22;15046;50.930;13.334;2023-01-31T04:49:14;1.70;99.90
27633;DHT22;15046;50.930;13.334;2023-01-31T04:51:40;1.70;99.90
27633;DHT22;15046;50.930;13.334;2023-01-31T04:54:06;1.70;99.90
27633;DHT22;15046;50.930;13.334;2023-01-31T04:56:32;1.70;99.90
27633;DHT22;15046;50.930;13.334;2023-01-31T04:58:58;1.70;99.90
27633;DHT22;15046;50.930;13.334;2023-01-31T05:01:24;1.70;99.90
27633;DHT22;15046;50.930;13.334;2023-01-31T05:03:50;1.70;99.90
27633;DHT22;15046;50.930;13.334;2023-01-31T05:06:15;1.70;99.90
27633;DHT22;15046;50.930;13.334;2023-01-31T05:08:41;1.70;99.90
27633;DHT22;15046;50.930;13.334;2023-01-31T05:11:07;1.70;99.90
27633;DHT22;15046;50.930;13.334;2023-01-31T05:13:34;1.70;99.90
27633;DHT22;15046;50.930;13.334;2023-01-31T05:16:07;1.70;99.90
27633;DHT22;15046;50.930;13.334;2023-01-31T05:18:34;1.70;99.90
27633;DHT22;15046;50.930;13.334;2023-01-31T05:21:00;1.70;99.90
27633;DHT22;15046;50.930;13.334;2023-01-31T05:23:28;1.70;99.90
27633;DHT22;15046;50.930;13.334;2023-01-31T05:25:54;1.70;99.90
27633;DHT22;15046;50.930;13.334;2023-01-31T05:28:20;1.70;99.90
27633;DHT22;15046;50.930;13.334;2023-01-31T05:30:46;1.80;99.90
27633;DHT22;15046;50.930;13.334;2023-01-31T05:33:12;1.80;99.90
27633;DHT22;15046;50.930;13.334;2023-01-31T05:35:38;1.80;99.90
27633;DHT22;15046;50.930;13.334;2023-01-31T05:38:07;1.80;99.90
27633;DHT22;15046;50.930;13.334;2023-01-31T05:40:33;1.80;99.90
27633;DHT22;15046;50.930;13.334;2023-01-31T05:42:59;1.80;99.90
27633;DHT22;15046;50.930;13.334;2023-01-31T05:45:29;1.80;99.90
27633;DHT22;15046;50.930;13.334;2023-01-31T05:47:56;1.80;99.90
27633;DHT22;15046;50.930;13.334;2023-01-31T05:50:22;1.80;99.90
27633;DHT22;15046;50.930;13.334;2023-01-31T05:52:53;1.80;99.90
27633;DHT22;15046;50.930;13.334;2023-01-31T05:55:20;1.80;99.90
27633;DHT22;15046;50.930;13.334;2023-01-31T05:57:46;1.80;99.90
27633;DHT22;15046;50.930;13.334;2023-01-31T06:00:12;1.80;99.90
27633;DHT22;15046;50.930;13.334;2023-01-31T06:02:40;1.80;99.90
27633;DHT22;15046;50.930;13.334;2023-01-31T06:05:06;1.80;99.90
27633;DHT22;15046;50.930;13.334;2023-01-31T06:07:32;1.80;99.90
27633;DHT22;15046;50.930;13.334;2023-01-31T06:09:58;1.80;99.90
27633;DHT22;15046;50.930;13.334;2023-01-31T06:12:24;1.80;99.90
27633;DHT22;15046;50.930;13.334;2023-01-31T06:14:50;1.80;99.90
27633;DHT22;15046;50.930;13.334;2023-01-31T06:17:15;1.80;99.90
27633;DHT22;15046;50.930;13.334;2023-01-31T06:19:41;1.80;99.90
27633;DHT22;15046;50.930;13.334;2023-01-31T06:22:07;1.80;99.90
27633;DHT22;15046;50.930;13.334;2023-01-31T06:24:33;1.70;99.90
27633;DHT22;15046;50.930;13.334;2023-01-31T06:26:59;1.80;99.90
27633;DHT22;15046;50.930;13.334;2023-01-31T06:29:25;1.80;99.90
27633;DHT22;15046;50.930;13.334;2023-01-31T06:31:51;1.70;99.90
27633;DHT22;15046;50.930;13.334;2023-01-31T06:34:18;1.70;99.90
27633;DHT22;15046;50.930;13.334;2023-01-31T06:36:44;1.80;99.90
27633;DHT22;15046;50.930;13.334;2023-01-31T06:39:11;1.70;99.90
27633;DHT22;15046;50.930;13.334;2023-01-31T06:41:38;1.70;99.90
27633;DHT22;15046;50.930;13.334;2023-01-31T06:44:04;1.80;99.90
27633;DHT22;15046;50.930;13.334;2023-01-31T06:46:30;1.70;99.90
27633;DHT22;15046;50.930;13.334;2023-01-31T06:48:56;1.70;99.90
27633;DHT22;15046;50.930;13.334;2023-01-31T06:51:21;1.80;99.90
27633;DHT22;15046;50.930;13.334;2023-01-31T06:53:47;1.80;99.90
27633;DHT22;15046;50.930;13.334;2023-01-31T06:56:13;1.80;99.90
27633;DHT22;15046;50.930;13.334;2023-01-31T06:58:39;1.80;99.90
27633;DHT22;15046;50.930;13.334;2023-01-31T07:01:06;1.80;99.90
27633;DHT22;15046;50.930;13.334;2023-01-31T07:03:32;1.80;99.90
27633;DHT22;15046;50.930;13.334;2023-01-31T07:05:58;1.80;99.90
27633;DHT22;15046;50.930;13.334;2023-01-31T07:08:24;1.80;99.90
27633;DHT22;15046;50.930;13.334;2023-01-31T07:10:49;1.80;99.90
27633;DHT22;15046;50.930;13.334;2023-01-31T07:13:15;1.80;99.90
27633;DHT22;15046;50.930;13.334;2023-01-31T07:15:41;1.90;99.90
27633;DHT22;15046;50.930;13.334;2023-01-31T07:18:07;1.90;99.90
27633;DHT22;15046;50.930;13.334;2023-01-31T07:20:33;1.90;99.90
27633;DHT22;15046;50.930;13.334;2023-01-31T07:22:59;2.00;99.90
27633;DHT22;15046;50.930;13.334;2023-01-31T07:25:26;2.10;99.90
27633;DHT22;15046;50.930;13.334;2023-01-31T07:27:51;2.10;99.90
27633;DHT22;15046;50.930;13.334;2023-01-31T07:30:17;2.10;99.90
27633;DHT22;15046;50.930;13.334;2023-01-31T07:32:44;2.20;99.90
27633;DHT22;15046;50.930;13.334;2023-01-31T07:35:09;2.20;99.90
27633;DHT22;15046;50.930;13.334;2023-01-31T07:37:36;2.20;99.90
27633;DHT22;15046;50.930;13.334;2023-01-31T07:40:02;2.20;99.90
27633;DHT22;15046;50.930;13.334;2023-01-31T07:42:30;2.20;99.90
27633;DHT22;15046;50.930;13.334;2023-01-31T07:44:56;2.20;99.90
27633;DHT22;15046;50.930;13.334;2023-01-31T07:47:21;2.30;99.90
27633;DHT22;15046;50.930;13.334;2023-01-31T07:49:47;2.30;99.90
27633;DHT22;15046;50.930;13.334;2023-01-31T07:52:15;2.30;99.90
27633;DHT22;15046;50.930;13.334;2023-01-31T07:54:41;2.40;99.90
27633;DHT22;15046;50.930;13.334;2023-01-31T07:57:06;2.40;99.90
27633;DHT22;15046;50.930;13.334;2023-01-31T07:59:32;2.40;99.90
27633;DHT22;15046;50.930;13.334;2023-01-31T08:01:58;2.50;99.90
27633;DHT22;15046;50.930;13.334;2023-01-31T08:04:42;2.50;99.90
27633;DHT22;15046;50.930;13.334;2023-01-31T08:07:08;2.50;99.90
27633;DHT22;15046;50.930;13.334;2023-01-31T08:09:34;2.50;99.90
27633;DHT22;15046;50.930;13.334;2023-01-31T08:12:00;2.60;99.90
27633;DHT22;15046;50.930;13.334;2023-01-31T08:14:26;2.60;99.90
27633;DHT22;15046;50.930;13.334;2023-01-31T08:16:53;2.60;99.90
27633;DHT22;15046;50.930;13.334;2023-01-31T08:19:20;2.70;99.90
27633;DHT22;15046;50.930;13.334;2023-01-31T08:21:46;2.70;99.90
27633;DHT22;15046;50.930;13.334;2023-01-31T08:24:12;2.80;99.90
27633;DHT22;15046;50.930;13.334;2023-01-31T08:26:38;2.80;99.90
27633;DHT22;15046;50.930;13.334;2023-01-31T08:29:06;2.90;99.90
27633;DHT22;15046;50.930;13.334;2023-01-31T08:31:32;2.90;99.90
27633;DHT22;15046;50.930;13.334;2023-01-31T08:33:57;2.90;99.90
27633;DHT22;15046;50.930;13.334;2023-01-31T08:36:26;2.90;99.90
27633;DHT22;15046;50.930;13.334;2023-01-31T08:38:53;3.00;99.90
27633;DHT22;15046;50.930;13.334;2023-01-31T08:41:20;3.00;99.90
27633;DHT22;15046;50.930;13.334;2023-01-31T08:43:47;3.00;99.90
27633;DHT22;15046;50.930;13.334;2023-01-31T08:46:16;3.20;99.90
27633;DHT22;15046;50.930;13.334;2023-01-31T08:48:42;3.20;99.90
27633;DHT22;15046;50.930;13.334;2023-01-31T08:51:12;3.20;99.90
27633;DHT22;15046;50.930;13.334;2023-01-31T08:53:39;3.20;99.90
27633;DHT22;15046;50.930;13.334;2023-01-31T08:56:07;3.20;99.90
27633;DHT22;15046;50.930;13.334;2023-01-31T08:58:35;3.20;99.90
27633;DHT22;15046;50.930;13.334;2023-01-31T09:01:09;3.30;99.90
27633;DHT22;15046;50.930;13.334;2023-01-31T09:03:36;3.30;99.90
27633;DHT22;15046;50.930;13.334;2023-01-31T09:06:06;3.40;99.90
27633;DHT22;15046;50.930;13.334;2023-01-31T09:08:33;3.40;99.90
27633;DHT22;15046;50.930;13.334;2023-01-31T09:10:59;3.50;99.90
27633;DHT22;15046;50.930;13.334;2023-01-31T09:13:26;3.50;99.90
27633;DHT22;15046;50.930;13.334;2023-01-31T09:16:02;3.50;99.90
27633;DHT22;15046;50.930;13.334;2023-01-31T09:18:29;3.60;99.90
27633;DHT22;15046;50.930;13.334;2023-01-31T09:20:55;3.70;99.90
27633;DHT22;15046;50.930;13.334;2023-01-31T09:23:21;3.90;99.90
27633;DHT22;15046;50.930;13.334;2023-01-31T09:25:54;4.10;99.90
27633;DHT22;15046;50.930;13.334;2023-01-31T09:28:21;4.40;99.90
27633;DHT22;15046;50.930;13.334;2023-01-31T09:30:48;4.60;99.90
27633;DHT22;15046;50.930;13.334;2023-01-31T09:33:14;4.80;99.90
27633;DHT22;15046;50.930;13.334;2023-01-31T09:35:40;4.80;99.90
27633;DHT22;15046;50.930;13.334;2023-01-31T09:38:05;4.80;99.90
27633;DHT22;15046;50.930;13.334;2023-01-31T09:40:33;4.80;99.90
27633;DHT22;15046;50.930;13.334;2023-01-31T09:43:01;4.70;99.90
27633;DHT22;15046;50.930;13.334;2023-01-31T09:45:31;4.70;99.90
27633;DHT22;15046;50.930;13.334;2023-01-31T09:47:59;4.60;99.90
27633;DHT22;15046;50.930;13.334;2023-01-31T09:50:36;4.50;99.90
27633;DHT22;15046;50.930;13.334;2023-01-31T09:53:04;4.40;99.90
27633;DHT22;15046;50.930;13.334;2023-01-31T09:55:52;4.30;99.90
27633;DHT22;15046;50.930;13.334;2023-01-31T09:59:13;4.30;99.90
27633;DHT22;15046;50.930;13.334;2023-01-31T10:01:29;4.30;99.90
27633;DHT22;15046;50.930;13.334;2023-01-31T10:06:37;4.20;99.90
27633;DHT22;15046;50.930;13.334;2023-01-31T10:09:29;4.10;99.90
27633;DHT22;15046;50.930;13.334;2023-01-31T10:12:18;4.10;99.90
27633;DHT22;15046;50.930;13.334;2023-01-31T10:14:57;4.00;99.90
27633;DHT22;15046;50.930;13.334;2023-01-31T10:17:59;4.00;99.90
27633;DHT22;15046;50.930;13.334;2023-01-31T10:20:20;4.00;99.90
27633;DHT22;15046;50.930;13.334;2023-01-31T10:25:52;3.90;99.90
27633;DHT22;15046;50.930;13.334;2023-01-31T10:28:25;3.90;99.90
27633;DHT22;15046;50.930;13.334;2023-01-31T10:31:11;4.00;99.90
27633;DHT22;15046;50.930;13.334;2023-01-31T10:33:59;4.00;99.90
27633;DHT22;15046;50.930;13.334;2023-01-31T10:36:56;4.10;99.90
27633;DHT22;15046;50.930;13.334;2023-01-31T10:42:38;4.20;99.90
27633;DHT22;15046;50.930;13.334;2023-01-31T10:45:22;4.30;99.90
27633;DHT22;15046;50.930;13.334;2023-01-31T10:48:23;4.30;99.90
27633;DHT22;15046;50.930;13.334;2023-01-31T10:54:02;4.40;99.90
27633;DHT22;15046;50.930;13.334;2023-01-31T10:56:35;4.50;99.90
27633;DHT22;15046;50.930;13.334;2023-01-31T10:59:51;4.60;99.90
27633;DHT22;15046;50.930;13.334;2023-01-31T11:01:52;4.70;99.90
27633;DHT22;15046;50.930;13.334;2023-01-31T11:04:42;4.80;99.90
27633;DHT22;15046;50.930;13.334;2023-01-31T11:07:08;4.90;99.90
27633;DHT22;15046;50.930;13.334;2023-01-31T11:09:39;5.00;99.90
27633;DHT22;15046;50.930;13.334;2023-01-31T11:12:07;5.10;99.90
27633;DHT22;15046;50.930;13.334;2023-01-31T11:14:33;5.30;99.90
27633;DHT22;15046;50.930;13.334;2023-01-31T11:17:15;5.40;99.90
27633;DHT22;15046;50.930;13.334;2023-01-31T11:19:49;5.40;99.90
27633;DHT22;15046;50.930;13.334;2023-01-31T11:22:28;5.50;99.90
27633;DHT22;15046;50.930;13.334;2023-01-31T11:24:56;5.80;99.90
27633;DHT22;15046;50.930;13.334;2023-01-31T11:27:38;5.70;99.90
27633;DHT22;15046;50.930;13.334;2023-01-31T11:30:06;5.40;99.90
27633;DHT22;15046;50.930;13.334;2023-01-31T11:32:43;5.20;99.90
27633;DHT22;15046;50.930;13.334;2023-01-31T11:37:49;4.70;99.90
27633;DHT22;15046;50.930;13.334;2023-01-31T11:40:35;4.60;99.90
27633;DHT22;15046;50.930;13.334;2023-01-31T11:43:03;4.50;99.90
27633;DHT22;15046;50.930;13.334;2023-01-31T11:45:34;4.50;99.90
27633;DHT22;15046;50.930;13.334;2023-01-31T11:48:17;4.40;99.90
27633;DHT22;15046;50.930;13.334;2023-01-31T11:50:55;4.50;99.90
27633;DHT22;15046;50.930;13.334;2023-01-31T11:55:51;4.90;99.90
27633;DHT22;15046;50.930;13.334;2023-01-31T11:58:28;4.90;99.90
27633;DHT22;15046;50.930;13.334;2023-01-31T12:01:05;5.00;99.90
27633;DHT22;15046;50.930;13.334;2023-01-31T12:03:32;4.90;99.90
27633;DHT22;15046;50.930;13.334;2023-01-31T12:06:04;4.90;99.90
27633;DHT22;15046;50.930;13.334;2023-01-31T12:08:36;4.80;99.90
27633;DHT22;15046;50.930;13.334;2023-01-31T12:11:30;4.80;99.90
27633;DHT22;15046;50.930;13.334;2023-01-31T12:14:12;4.60;99.90
27633;DHT22;15046;50.930;13.334;2023-01-31T12:16:39;4.60;99.90
27633;DHT22;15046;50.930;13.334;2023-01-31T12:24:25;5.00;99.90
27633;DHT22;15046;50.930;13.334;2023-01-31T12:32:56;4.80;99.90
27633;DHT22;15046;50.930;13.334;2023-01-31T12:49:43;3.70;99.90
27633;DHT22;15046;50.930;13.334;2023-01-31T12:52:19;3.30;99.90
27633;DHT22;15046;50.930;13.334;2023-01-31T12:55:11;3.00;99.90
27633;DHT22;15046;50.930;13.334;2023-01-31T12:57:53;3.00;99.90
27633;DHT22;15046;50.930;13.334;2023-01-31T13:03:19;2.90;99.90
27633;DHT22;15046;50.930;13.334;2023-01-31T13:06:00;3.00;99.90
27633;DHT22;15046;50.930;13.334;2023-01-31T13:08:28;3.00;99.90
27633;DHT22;15046;50.930;13.334;2023-01-31T13:11:10;2.90;99.90
27633;DHT22;15046;50.930;13.334;2023-01-31T13:13:48;2.80;99.90
27633;DHT22;15046;50.930;13.334;2023-01-31T13:16:37;2.80;99.90
27633;DHT22;15046;50.930;13.334;2023-01-31T13:22:17;2.80;99.90
27633;DHT22;15046;50.930;13.334;2023-01-31T13:24:47;2.60;99.90
27633;DHT22;15046;50.930;13.334;2023-01-31T13:29:56;2.60;99.90
27633;DHT22;15046;50.930;13.334;2023-01-31T13:32:35;2.50;99.90
27633;DHT22;15046;50.930;13.334;2023-01-31T13:37:54;2.60;99.90
27633;DHT22;15046;50.930;13.334;2023-01-31T13:40:25;2.70;99.90
27633;DHT22;15046;50.930;13.334;2023-01-31T13:42:51;2.50;99.90
27633;DHT22;15046;50.930;13.334;2023-01-31T13:45:29;2.40;99.90
27633;DHT22;15046;50.930;13.334;2023-01-31T13:48:03;2.40;99.90
27633;DHT22;15046;50.930;13.334;2023-01-31T13:50:42;2.30;99.90
27633;DHT22;15046;50.930;13.334;2023-01-31T13:53:20;2.30;99.90
27633;DHT22;15046;50.930;13.334;2023-01-31T13:55:48;2.30;99.90
27633;DHT22;15046;50.930;13.334;2023-01-31T13:58:24;2.30;99.90
27633;DHT22;15046;50.930;13.334;2023-01-31T14:00:58;2.30;99.90
27633;DHT22;15046;50.930;13.334;2023-01-31T14:03:26;2.20;99.90
27633;DHT22;15046;50.930;13.334;2023-01-31T14:05:57;2.30;99.90
27633;DHT22;15046;50.930;13.334;2023-01-31T14:08:27;2.20;99.90
27633;DHT22;15046;50.930;13.334;2023-01-31T14:10:55;2.20;99.90
27633;DHT22;15046;50.930;13.334;2023-01-31T14:13:37;2.20;99.90
27633;DHT22;15046;50.930;13.334;2023-01-31T14:19:29;2.30;99.90
27633;DHT22;15046;50.930;13.334;2023-01-31T14:22:11;2.30;99.90
27633;DHT22;15046;50.930;13.334;2023-01-31T14:41:49;2.20;99.90
27633;DHT22;15046;50.930;13.334;2023-01-31T14:45:04;2.10;99.90
27633;DHT22;15046;50.930;13.334;2023-01-31T14:47:36;2.10;99.90
27633;DHT22;15046;50.930;13.334;2023-01-31T14:50:15;2.10;99.90
27633;DHT22;15046;50.930;13.334;2023-01-31T14:55:37;2.10;99.90
27633;DHT22;15046;50.930;13.334;2023-01-31T14:58:06;2.10;99.90
27633;DHT22;15046;50.930;13.334;2023-01-31T15:00:38;2.10;99.90
27633;DHT22;15046;50.930;13.334;2023-01-31T15:03:18;2.10;99.90
27633;DHT22;15046;50.930;13.334;2023-01-31T15:05:53;2.10;99.90
27633;DHT22;15046;50.930;13.334;2023-01-31T15:11:04;2.10;99.90
27633;DHT22;15046;50.930;13.334;2023-01-31T15:13:39;2.10;99.90
27633;DHT22;15046;50.930;13.334;2023-01-31T15:16:15;2.10;99.90
27633;DHT22;15046;50.930;13.334;2023-01-31T15:18:44;2.10;99.90
27633;DHT22;15046;50.930;13.334;2023-01-31T15:21:11;2.10;99.90
27633;DHT22;15046;50.930;13.334;2023-01-31T15:23:42;2.00;99.90
27633;DHT22;15046;50.930;13.334;2023-01-31T15:26:09;2.00;99.90
27633;DHT22;15046;50.930;13.334;2023-01-31T15:28:37;1.90;99.90
27633;DHT22;15046;50.930;13.334;2023-01-31T15:31:16;1.90;99.90
27633;DHT22;15046;50.930;13.334;2023-01-31T15:33:46;1.90;99.90
27633;DHT22;15046;50.930;13.334;2023-01-31T15:36:41;1.90;99.90
27633;DHT22;15046;50.930;13.334;2023-01-31T15:39:22;1.90;99.90
27633;DHT22;15046;50.930;13.334;2023-01-31T15:41:50;1.90;99.90
27633;DHT22;15046;50.930;13.334;2023-01-31T15:46:47;1.90;99.90
27633;DHT22;15046;50.930;13.334;2023-01-31T15:52:04;1.80;99.90
27633;DHT22;15046;50.930;13.334;2023-01-31T15:54:34;1.80;99.90
27633;DHT22;15046;50.930;13.334;2023-01-31T15:57:01;1.80;99.90
27633;DHT22;15046;50.930;13.334;2023-01-31T15:59:29;1.80;99.90
27633;DHT22;15046;50.930;13.334;2023-01-31T16:02:01;1.80;99.90
27633;DHT22;15046;50.930;13.334;2023-01-31T16:04:28;1.80;99.90
27633;DHT22;15046;50.930;13.334;2023-01-31T16:06:55;1.80;99.90
27633;DHT22;15046;50.930;13.334;2023-01-31T16:09:28;1.80;99.90
27633;DHT22;15046;50.930;13.334;2023-01-31T16:11:56;1.80;99.90
27633;DHT22;15046;50.930;13.334;2023-01-31T16:14:23;1.80;99.90
27633;DHT22;15046;50.930;13.334;2023-01-31T16:16:54;1.80;99.90
27633;DHT22;15046;50.930;13.334;2023-01-31T16:19:32;1.80;99.90
27633;DHT22;15046;50.930;13.334;2023-01-31T16:22:00;1.80;99.90
27633;DHT22;15046;50.930;13.334;2023-01-31T16:24:27;1.80;99.90
27633;DHT22;15046;50.930;13.334;2023-01-31T16:27:13;1.80;99.90
27633;DHT22;15046;50.930;13.334;2023-01-31T16:29:49;1.80;99.90
27633;DHT22;15046;50.930;13.334;2023-01-31T16:32:26;1.90;99.90
27633;DHT22;15046;50.930;13.334;2023-01-31T16:35:08;1.90;99.90
27633;DHT22;15046;50.930;13.334;2023-01-31T16:37:43;1.80;99.90
27633;DHT22;15046;50.930;13.334;2023-01-31T16:42:35;1.80;99.90
27633;DHT22;15046;50.930;13.334;2023-01-31T16:45:25;1.80;99.90
27633;DHT22;15046;50.930;13.334;2023-01-31T16:47:51;1.90;99.90
27633;DHT22;15046;50.930;13.334;2023-01-31T16:53:14;1.90;99.90
27633;DHT22;15046;50.930;13.334;2023-01-31T16:55:40;1.90;99.90
27633;DHT22;15046;50.930;13.334;2023-01-31T16:58:09;1.90;99.90
27633;DHT22;15046;50.930;13.334;2023-01-31T17:00:35;1.90;99.90
27633;DHT22;15046;50.930;13.334;2023-01-31T17:03:01;1.90;99.90
27633;DHT22;15046;50.930;13.334;2023-01-31T17:05:38;1.90;99.90
27633;DHT22;15046;50.930;13.334;2023-01-31T17:08:04;2.00;99.90
27633;DHT22;15046;50.930;13.334;2023-01-31T17:10:38;2.00;99.90
27633;DHT22;15046;50.930;13.334;2023-01-31T17:13:22;2.00;99.90
27633;DHT22;15046;50.930;13.334;2023-01-31T17:15:49;2.00;99.90
27633;DHT22;15046;50.930;13.334;2023-01-31T17:18:16;2.10;99.90
27633;DHT22;15046;50.930;13.334;2023-01-31T17:20:44;2.10;99.90
27633;DHT22;15046;50.930;13.334;2023-01-31T17:23:11;2.10;99.90
27633;DHT22;15046;50.930;13.334;2023-01-31T17:25:39;2.10;99.90
27633;DHT22;15046;50.930;13.334;2023-01-31T17:28:05;2.20;99.90
27633;DHT22;15046;50.930;13.334;2023-01-31T17:30:32;2.20;99.90
27633;DHT22;15046;50.930;13.334;2023-01-31T17:32:59;2.20;99.90
27633;DHT22;15046;50.930;13.334;2023-01-31T17:35:28;2.20;99.90
27633;DHT22;15046;50.930;13.334;2023-01-31T17:37:55;2.30;99.90
27633;DHT22;15046;50.930;13.334;2023-01-31T17:40:22;2.30;99.90
27633;DHT22;15046;50.930;13.334;2023-01-31T17:42:52;2.30;99.90
27633;DHT22;15046;50.930;13.334;2023-01-31T17:45:18;2.30;99.90
27633;DHT22;15046;50.930;13.334;2023-01-31T17:47:44;2.40;99.90
27633;DHT22;15046;50.930;13.334;2023-01-31T17:50:20;2.40;99.90
27633;DHT22;15046;50.930;13.334;2023-01-31T17:52:46;2.40;99.90
27633;DHT22;15046;50.930;13.334;2023-01-31T17:55:13;2.40;99.90
27633;DHT22;15046;50.930;13.334;2023-01-31T17:57:39;2.40;99.90
27633;DHT22;15046;50.930;13.334;2023-01-31T18:00:08;2.50;99.90